createdAt,value
2023-01-12T00:02:15.525Z,99.20
2023-01-12T00:06:19.483Z,98.50
2023-01-12T00:10:21.282Z,98.20
2023-01-12T00:14:23.215Z,98.00
2023-01-12T00:18:24.956Z,97.70
2023-01-12T00:22:26.782Z,98.00
2023-01-12T00:26:28.595Z,98.40
2023-01-12T00:30:30.381Z,98.40
2023-01-12T00:34:32.416Z,98.20
2023-01-12T00:38:38.314Z,98.70
2023-01-12T00:42:58.570Z,99.00
2023-01-12T00:47:00.369Z,99.00
2023-01-12T00:51:05.314Z,99.30
2023-01-12T00:55:07.431Z,99.00
2023-01-12T00:59:09.248Z,98.90
2023-01-12T01:03:11.033Z,99.10
2023-01-12T01:07:13.565Z,99.40
2023-01-12T01:11:15.514Z,99.90
2023-01-12T01:15:17.338Z,99.90
2023-01-12T01:19:19.082Z,99.40
2023-01-12T01:23:22.143Z,99.20
2023-01-12T01:27:23.953Z,98.80
2023-01-12T01:31:26.673Z,98.50
2023-01-12T01:35:28.480Z,98.20
2023-01-12T01:39:30.347Z,97.90
2023-01-12T01:43:51.285Z,98.00
2023-01-12T01:47:58.124Z,98.10
2023-01-12T01:52:12.614Z,97.90
2023-01-12T01:56:24.462Z,98.00
2023-01-12T02:00:26.347Z,98.00
2023-01-12T02:04:28.495Z,99.10
2023-01-12T02:08:45.155Z,99.50
2023-01-12T02:13:17.812Z,99.40
2023-01-12T02:17:38.223Z,99.40
2023-01-12T02:21:55.250Z,98.70
2023-01-12T02:26:09.188Z,98.50
2023-01-12T02:30:19.790Z,98.60
2023-01-12T02:34:42.953Z,98.80
2023-01-12T02:38:54.228Z,98.90
2023-01-12T02:43:16.300Z,98.50
2023-01-12T02:47:49.938Z,98.80
2023-01-12T02:51:58.689Z,99.40
2023-01-12T02:56:04.310Z,99.50
2023-01-12T03:00:06.894Z,99.80
2023-01-12T03:04:10.793Z,99.80
2023-01-12T03:08:16.222Z,99.00
2023-01-12T03:12:24.323Z,99.00
2023-01-12T03:16:31.206Z,99.20
2023-01-12T03:20:43.863Z,99.00
2023-01-12T03:24:49.815Z,98.80
2023-01-12T03:28:59.240Z,98.70
2023-01-12T03:33:01.141Z,98.70
2023-01-12T03:37:25.679Z,98.80
2023-01-12T03:41:53.573Z,98.40
2023-01-12T03:46:02.657Z,98.40
2023-01-12T03:50:07.178Z,98.60
2023-01-12T03:54:11.561Z,99.90
2023-01-12T03:58:13.442Z,99.60
2023-01-12T04:02:15.240Z,99.90
2023-01-12T04:06:17.043Z,99.90
2023-01-12T04:10:18.833Z,99.80
2023-01-12T04:14:20.668Z,99.90
2023-01-12T04:18:22.438Z,99.90
2023-01-12T04:22:42.654Z,99.90
2023-01-12T04:26:44.519Z,99.90
2023-01-12T04:30:46.376Z,99.90
2023-01-12T04:34:48.219Z,99.10
2023-01-12T04:38:50.043Z,98.90
2023-01-12T04:43:01.831Z,99.70
2023-01-12T04:47:03.699Z,99.10
2023-01-12T04:51:05.686Z,99.80
2023-01-12T04:55:07.726Z,99.90
2023-01-12T04:59:10.710Z,99.90
2023-01-12T05:03:13.767Z,99.90
2023-01-12T05:07:16.789Z,99.70
2023-01-12T05:11:18.673Z,99.20
2023-01-12T05:15:20.523Z,99.50
2023-01-12T05:19:22.273Z,99.90
2023-01-12T05:23:24.048Z,99.90
2023-01-12T05:27:25.985Z,99.90
2023-01-12T05:31:27.736Z,99.60
2023-01-12T05:35:29.549Z,99.40
2023-01-12T05:39:31.348Z,99.40
2023-01-12T05:43:51.831Z,99.40
2023-01-12T05:48:01.867Z,99.50
2023-01-12T05:52:03.677Z,99.40
2023-01-12T05:56:26.887Z,99.40
2023-01-12T06:00:28.786Z,99.90
2023-01-12T06:04:30.813Z,99.90
2023-01-12T06:08:32.731Z,99.90
2023-01-12T06:12:52.946Z,99.90
2023-01-12T06:16:54.725Z,99.90
2023-01-12T06:20:59.630Z,99.90
2023-01-12T06:25:01.452Z,99.90
2023-01-12T06:29:05.531Z,99.90
2023-01-12T06:33:07.445Z,99.90
2023-01-12T06:37:11.949Z,99.90
2023-01-12T06:41:32.671Z,99.90
2023-01-12T06:45:34.705Z,99.90
2023-01-12T06:49:36.476Z,99.90
2023-01-12T06:53:38.291Z,99.90
2023-01-12T06:57:40.189Z,99.90
2023-01-12T07:01:42.225Z,99.90
2023-01-12T07:05:44.513Z,99.90
2023-01-12T07:09:46.325Z,99.00
2023-01-12T07:13:48.115Z,98.50
2023-01-12T07:17:56.227Z,99.10
2023-01-12T07:21:57.978Z,99.10
2023-01-12T07:25:59.758Z,98.90
2023-01-12T07:30:01.566Z,99.00
2023-01-12T07:34:03.570Z,99.00
2023-01-12T07:38:06.257Z,98.90
2023-01-12T07:42:23.978Z,99.00
2023-01-12T07:46:26.831Z,99.30
2023-01-12T07:50:29.717Z,99.10
2023-01-12T07:54:33.514Z,98.80
2023-01-12T07:58:35.573Z,99.00
2023-01-12T08:02:37.536Z,99.00
2023-01-12T08:06:39.355Z,98.00
2023-01-12T08:10:43.410Z,98.20
2023-01-12T08:14:45.308Z,98.60
2023-01-12T08:19:02.397Z,98.20
2023-01-12T08:23:11.534Z,98.30
2023-01-12T08:27:13.567Z,98.40
2023-01-12T08:31:16.741Z,98.40
2023-01-12T08:35:21.842Z,98.00
2023-01-12T08:39:23.706Z,98.30
2023-01-12T08:43:44.092Z,98.80
2023-01-12T08:47:46.017Z,98.70
2023-01-12T08:51:48.143Z,98.60
2023-01-12T08:55:55.902Z,98.40
2023-01-12T08:59:57.880Z,98.20
2023-01-12T09:04:00.221Z,97.80
2023-01-12T09:08:02.046Z,98.20
2023-01-12T09:12:04.675Z,98.30
2023-01-12T09:16:13.323Z,98.30
2023-01-12T09:20:16.137Z,98.80
2023-01-12T09:24:18.078Z,98.40
2023-01-12T09:28:19.874Z,99.00
2023-01-12T09:32:25.972Z,98.70
2023-01-12T09:36:34.080Z,98.60
2023-01-12T09:40:35.948Z,98.90
2023-01-12T09:45:08.980Z,98.40
2023-01-12T09:49:12.564Z,98.60
2023-01-12T09:53:32.586Z,98.10
2023-01-12T09:57:37.140Z,98.60
2023-01-12T10:01:39.083Z,98.60
2023-01-12T10:05:47.201Z,98.50
2023-01-12T10:09:49.299Z,98.60
2023-01-12T10:14:28.929Z,98.60
2023-01-12T10:18:44.848Z,98.70
2023-01-12T10:22:49.880Z,98.20
2023-01-12T10:27:00.063Z,98.10
2023-01-12T10:31:02.701Z,98.80
2023-01-12T10:35:05.279Z,98.40
2023-01-12T10:39:30.413Z,98.60
2023-01-12T10:43:34.009Z,98.60
2023-01-12T10:47:35.797Z,97.80
2023-01-12T10:51:57.425Z,97.60
2023-01-12T10:55:59.876Z,97.40
2023-01-12T11:00:02.816Z,97.70
2023-01-12T11:04:06.049Z,97.20
2023-01-12T11:08:23.526Z,97.50
2023-01-12T11:12:25.783Z,97.50
2023-01-12T11:16:49.160Z,97.40
2023-01-12T11:20:50.916Z,97.90
2023-01-12T11:24:58.060Z,97.60
2023-01-12T11:29:09.390Z,97.10
2023-01-12T11:33:15.149Z,97.00
2023-01-12T11:37:18.456Z,97.30
2023-01-12T11:41:23.065Z,97.50
2023-01-12T11:45:53.502Z,97.30
2023-01-12T11:50:07.753Z,97.10
2023-01-12T11:54:16.660Z,97.20
2023-01-12T11:58:39.009Z,97.20
2023-01-12T12:02:54.905Z,96.90
2023-01-12T12:07:21.186Z,96.80
2023-01-12T12:11:36.723Z,97.20
2023-01-12T12:15:52.338Z,97.80
2023-01-12T12:20:33.144Z,97.90
2023-01-12T12:24:40.550Z,97.60
2023-01-12T12:29:10.848Z,97.40
2023-01-12T12:33:24.524Z,97.80
2023-01-12T12:37:58.734Z,97.60
2023-01-12T12:42:40.184Z,97.50
2023-01-12T12:47:23.290Z,97.50
2023-01-12T12:51:26.722Z,97.70
2023-01-12T12:55:28.571Z,97.80
2023-01-12T12:59:33.490Z,98.20
2023-01-12T13:03:41.568Z,98.10
2023-01-12T13:07:51.113Z,97.80
2023-01-12T13:11:59.624Z,98.40
2023-01-12T13:16:19.214Z,98.20
2023-01-12T13:20:49.771Z,98.20
2023-01-12T13:24:52.857Z,97.90
2023-01-12T13:29:28.952Z,97.60
2023-01-12T13:33:30.825Z,97.20
2023-01-12T13:37:51.822Z,97.40
2023-01-12T13:42:12.470Z,97.80
2023-01-12T13:46:18.283Z,98.00
2023-01-12T13:50:23.705Z,97.50
2023-01-12T13:54:25.641Z,97.40
2023-01-12T13:58:29.083Z,97.10
2023-01-12T14:02:32.838Z,97.50
2023-01-12T14:06:56.494Z,97.70
2023-01-12T14:11:24.314Z,97.40
2023-01-12T14:16:00.264Z,97.80
2023-01-12T14:20:02.190Z,97.80
2023-01-12T14:24:24.916Z,97.60
2023-01-12T14:28:26.717Z,97.70
2023-01-12T14:32:28.563Z,98.00
2023-01-12T14:36:50.726Z,98.00
2023-01-12T14:40:58.493Z,98.10
2023-01-12T14:45:18.999Z,97.50
2023-01-12T14:49:20.844Z,97.80
2023-01-12T14:53:33.142Z,97.40
2023-01-12T14:57:36.279Z,97.30
2023-01-12T15:01:38.800Z,97.60
2023-01-12T15:05:42.091Z,97.80
2023-01-12T15:10:16.299Z,97.70
2023-01-12T15:14:29.029Z,97.60
2023-01-12T15:18:49.553Z,97.30
2023-01-12T15:23:09.908Z,97.30
2023-01-12T15:27:13.852Z,97.70
2023-01-12T15:31:28.791Z,97.40
2023-01-12T15:35:32.216Z,97.70
2023-01-12T15:39:34.036Z,98.20
2023-01-12T15:43:35.828Z,97.70
2023-01-12T15:47:37.592Z,97.50
2023-01-12T15:51:40.270Z,97.50
2023-01-12T15:55:42.188Z,97.50
2023-01-12T15:59:44.066Z,97.90
2023-01-12T16:04:05.208Z,97.70
2023-01-12T16:08:08.171Z,97.90
2023-01-12T16:12:10.553Z,98.30
2023-01-12T16:16:16.219Z,98.20
2023-01-12T16:20:19.864Z,98.10
2023-01-12T16:24:24.072Z,97.90
2023-01-12T16:28:27.057Z,98.20
2023-01-12T16:32:28.894Z,98.10
2023-01-12T16:36:30.660Z,98.50
2023-01-12T16:40:32.626Z,98.60
2023-01-12T16:44:40.175Z,98.90
2023-01-12T16:48:42.430Z,98.70
2023-01-12T16:52:44.259Z,98.60
2023-01-12T16:56:46.096Z,98.60
2023-01-12T17:00:47.948Z,98.20
2023-01-12T17:04:52.059Z,98.30
2023-01-12T17:08:54.781Z,98.30
2023-01-12T17:13:01.917Z,98.40
2023-01-12T17:17:07.689Z,98.20
2023-01-12T17:21:12.885Z,98.50
2023-01-12T17:25:15.867Z,98.10
2023-01-12T17:29:18.540Z,98.20
2023-01-12T17:33:20.545Z,98.00
2023-01-12T17:37:24.651Z,97.60
2023-01-12T17:41:45.522Z,97.50
2023-01-12T17:45:47.416Z,97.60
2023-01-12T17:49:49.297Z,97.80
2023-01-12T17:54:01.773Z,97.40
2023-01-12T17:58:04.690Z,97.50
2023-01-12T18:02:07.341Z,97.80
2023-01-12T18:06:15.030Z,98.00
2023-01-12T18:10:20.847Z,97.70
2023-01-12T18:14:24.852Z,97.40
2023-01-12T18:18:26.961Z,97.40
2023-01-12T18:22:28.877Z,97.50
2023-01-12T18:26:35.704Z,97.50
2023-01-12T18:30:37.628Z,97.60
2023-01-12T18:34:42.696Z,97.50
2023-01-12T18:38:45.073Z,97.70
2023-01-12T18:42:54.439Z,97.60
2023-01-12T18:47:16.771Z,97.40
2023-01-12T18:51:44.916Z,97.50
2023-01-12T18:55:48.078Z,97.40
2023-01-12T18:59:52.556Z,97.40
2023-01-12T19:03:54.311Z,97.40
2023-01-12T19:07:59.123Z,97.40
2023-01-12T19:12:05.884Z,97.70
2023-01-12T19:16:31.289Z,97.70
2023-01-12T19:20:35.845Z,97.60
2023-01-12T19:24:56.355Z,97.90
2023-01-12T19:28:58.120Z,97.90
2023-01-12T19:33:01.048Z,97.70
2023-01-12T19:37:02.889Z,97.80
2023-01-12T19:41:30.059Z,98.30
2023-01-12T19:45:32.253Z,98.10
2023-01-12T19:49:34.019Z,98.00
2023-01-12T19:53:35.889Z,98.00
2023-01-12T19:57:38.613Z,97.90
2023-01-12T20:01:40.625Z,98.20
2023-01-12T20:05:43.913Z,97.80
2023-01-12T20:09:47.753Z,98.00
2023-01-12T20:13:49.637Z,97.90
2023-01-12T20:17:51.560Z,98.00
2023-01-12T20:21:54.437Z,97.40
2023-01-12T20:25:56.224Z,97.40
2023-01-12T20:29:58.311Z,97.50
2023-01-12T20:34:00.439Z,97.10
2023-01-12T20:38:04.072Z,97.30
2023-01-12T20:42:06.039Z,97.40
2023-01-12T20:46:12.972Z,96.80
2023-01-12T20:50:17.799Z,96.70
2023-01-12T20:54:20.363Z,96.80
2023-01-12T20:58:22.196Z,96.80
2023-01-12T21:02:25.799Z,96.50
2023-01-12T21:06:27.776Z,96.50
2023-01-12T21:10:29.633Z,96.20
2023-01-12T21:14:32.323Z,96.50
2023-01-12T21:18:34.983Z,96.90
2023-01-12T21:22:36.810Z,96.70
2023-01-12T21:26:38.784Z,96.70
2023-01-12T21:30:40.934Z,96.60
2023-01-12T21:34:42.803Z,96.50
2023-01-12T21:38:48.855Z,96.30
2023-01-12T21:43:09.141Z,96.60
2023-01-12T21:47:10.974Z,96.70
2023-01-12T21:51:14.707Z,96.80
2023-01-12T21:55:18.808Z,97.20
2023-01-12T21:59:20.598Z,97.50
2023-01-12T22:03:26.760Z,97.60
2023-01-12T22:07:28.650Z,97.70
2023-01-12T22:11:30.455Z,97.80
2023-01-12T22:15:33.662Z,97.60
2023-01-12T22:19:36.601Z,97.80
2023-01-12T22:23:39.626Z,98.10
2023-01-12T22:27:41.906Z,98.30
2023-01-12T22:31:43.719Z,98.00
2023-01-12T22:35:45.578Z,98.00
2023-01-12T22:39:47.538Z,97.70
2023-01-12T22:43:49.660Z,97.60
2023-01-12T22:47:53.521Z,97.50
2023-01-12T22:51:56.084Z,97.90
2023-01-12T22:56:00.583Z,97.50
2023-01-12T23:00:02.581Z,97.50
2023-01-12T23:04:04.605Z,97.60
2023-01-12T23:08:06.914Z,97.40
2023-01-12T23:12:08.647Z,97.60
2023-01-12T23:16:13.421Z,97.50
2023-01-12T23:20:15.367Z,97.60
2023-01-12T23:24:17.137Z,97.40
2023-01-12T23:28:18.885Z,97.50
2023-01-12T23:32:20.647Z,97.50
2023-01-12T23:36:24.366Z,97.90
2023-01-12T23:40:26.127Z,97.70
2023-01-12T23:44:27.956Z,97.60
2023-01-12T23:48:30.940Z,97.40
2023-01-12T23:52:32.737Z,97.30
2023-01-12T23:56:34.847Z,97.40
